ESSB/BMA METAR and TAF weather

Enter ICAO airport designator
Station Type Date Time Source
ESSB METAR 2021/03/06 01:50 UTC NOAA

ESSB 060150Z AUTO 23007KT 9999 NCD M02/M07 Q1018


Station Type Date Time Source
ESSB Decoded METAR 2021/03/06 01:50 UTC NOAA

Stockholm / Bromma, Sweden (ESSB) 59-21N 017-57E 14M
Mar 05, 2021 - 08:50 PM EST / 2021.03.06 0150 UTC
Wind: from the SW (230 degrees) at 8 MPH (7 KT):0
Visibility: greater than 7 mile(s):0
Temperature: 28 F (-2 C)
Windchill: 19 F (-7 C):1
Dew Point: 19 F (-7 C)
Relative Humidity: 68%
Pressure (altimeter): 30.06 in. Hg (1018 hPa)
ob: ESSB 060150Z AUTO 23007KT 9999 NCD M02/M07 Q1018
cycle: 2

Station Type Date Time Source
ESSB TAF 2017/03/27 06:35 UTC NOAA

TAF ESSB 270530Z 2706/2724 27008KT CAVOK
BECMG 2710/2713 29015G25KT

Example: see airport list